Observations for SOUTHAMPTON WX CNTR, United Kingdom (EGHI)

EGHI 242020Z 24013G23KT 6000 SHRA BKN007 11/10 Q1010
EGHI 241950Z 23013KT 210V270 7000 SHRA BKN008 11/10 Q1010   
EGHI 241920Z 23013KT 200V260 7000 BKN006 11/10 Q1010
EGHI 241850Z 23011KT 7000 BKN005 11/10 Q1010
EGHI 241820Z 24012KT 210V270 9999 BKN007 11/10 Q1011
EGHI 241750Z 23010KT 200V260 9999 BKN006 11/10 Q1011
EGHI 241720Z 22012KT 6000 -DZ BKN005 11/10 Q1011
EGHI 241650Z 22014KT 6000 -DZ BKN005 11/10 Q1012
EGHI 241620Z 22016KT 5000 -DZ BR BKN006 11/10 Q1012 
EGHI 241550Z 22013KT 190V250 4000 -DZ BR BKN006 11/10 Q1012 
EGHI 241520Z 23013KT 200V270 4000 -DZ BR BKN005 11/10 Q1013 
EGHI 241450Z 22012G22KT 200V260 7000 -DZ BKN006 11/10 Q1013 
EGHI 241420Z 22013KT 200V260 6000 -DZ BKN004 11/10 Q1014
EGHI 241350Z 22014KT 5000 -DZ BR BKN006 11/10 Q1014 
EGHI 241320Z 21015KT 5000 -DZ BR BKN007 11/10 Q1014 
EGHI 241250Z 21012KT 190V250 8000 -DZ BKN007 12/10 Q1015
EGHI 241220Z 21014KT 170V240 9000 -RA BKN006 12/10 Q1015
EGHI 241150Z 20012KT 130V230 9999 FEW018 SCT049 13/08 Q1016 
EGHI 241120Z 21012KT 9999 FEW024 15/08 Q1015
EGHI 241050Z 21010KT 9999 FEW024 15/09 Q1016
EGHI 241020Z 20008KT 160V230 9999 FEW022 14/08 Q1016
EGHI 240950Z 20008KT 170V230 9999 FEW014 14/08 Q1016
EGHI 240920Z 22005KT 180V270 9999 FEW014 14/08 Q1016
EGHI 240850Z 26004KT 220V310 9999 FEW014 13/07 Q1017
EGHI 240820Z 26005KT 210V310 9999 FEW014 12/08 Q1017
EGHI 240750Z 26004KT 200V310 9999 SCT015 12/08 Q1017
EGHI 240720Z 24005KT 200V280 9999 FEW011 11/09 Q1016
EGHI 240650Z 23006KT 9999 FEW011 11/09 Q1016
EGHI 240620Z 23004KT 200V260 9999 FEW011 SCT019 11/09 Q1016 
EGHI 240550Z 22005KT 9999 FEW011 10/09 Q1016
EGHI 240520Z 23005KT 200V260 9999 FEW020 10/09 Q1016
EGHI 240450Z 25003KT 9999 FEW020 10/09 Q1016
EGHI 232120Z 23009KT 210V270 9999 SCT038 10/06 Q1017
EGHI 232050Z 23008KT 9999 SCT038 11/06 Q1017
EGHI 232020Z 24006KT 210V280 9999 SCT036 11/06 Q1017
EGHI 231950Z 25009KT 220V280 9999 FEW037 11/06 Q1017